sensor_id;sensor_type;location;lat;lon;timestamp;pressure;altitude;pressure_sealevel;temperature;humidity
28079;BME280;15388;42.238;24.684;2022-10-19T00:03:38;100118.91;;;5.07;99.69
28079;BME280;15388;42.238;24.684;2022-10-19T00:06:11;100109.47;;;5.19;99.16
28079;BME280;15388;42.238;24.684;2022-10-19T00:08:36;100112.78;;;5.22;97.90
28079;BME280;15388;42.238;24.684;2022-10-19T00:11:01;100103.63;;;5.14;98.07
28079;BME280;15388;42.238;24.684;2022-10-19T00:13:27;100105.13;;;5.18;97.59
28079;BME280;15388;42.238;24.684;2022-10-19T00:15:52;100097.31;;;5.00;97.76
28079;BME280;15388;42.238;24.684;2022-10-19T00:18:17;100107.53;;;5.06;98.09
28079;BME280;15388;42.238;24.684;2022-10-19T00:20:42;100101.72;;;5.16;98.23
28079;BME280;15388;42.238;24.684;2022-10-19T00:23:08;100102.72;;;5.29;97.61
28079;BME280;15388;42.238;24.684;2022-10-19T00:25:33;100098.31;;;5.30;96.72
28079;BME280;15388;42.238;24.684;2022-10-19T00:27:59;100084.84;;;5.18;97.19
28079;BME280;15388;42.238;24.684;2022-10-19T00:30:24;100081.47;;;5.16;97.32
28079;BME280;15388;42.238;24.684;2022-10-19T00:32:49;100080.59;;;5.16;97.45
28079;BME280;15388;42.238;24.684;2022-10-19T00:35:15;100076.28;;;5.15;97.97
28079;BME280;15388;42.238;24.684;2022-10-19T00:37:40;100073.28;;;5.21;97.54
28079;BME280;15388;42.238;24.684;2022-10-19T00:40:05;100069.97;;;5.17;96.47
28079;BME280;15388;42.238;24.684;2022-10-19T00:42:31;100067.31;;;5.17;95.92
28079;BME280;15388;42.238;24.684;2022-10-19T00:44:57;100065.97;;;5.10;96.00
28079;BME280;15388;42.238;24.684;2022-10-19T00:47:23;100063.81;;;5.02;97.40
28079;BME280;15388;42.238;24.684;2022-10-19T00:49:48;100057.22;;;5.09;96.88
28079;BME280;15388;42.238;24.684;2022-10-19T00:52:14;100062.78;;;5.05;96.10
28079;BME280;15388;42.238;24.684;2022-10-19T00:54:42;100053.25;;;5.02;95.59
28079;BME280;15388;42.238;24.684;2022-10-19T00:57:08;100045.50;;;4.99;96.12
28079;BME280;15388;42.238;24.684;2022-10-19T00:59:33;100042.78;;;5.01;96.11
28079;BME280;15388;42.238;24.684;2022-10-19T01:02:00;100043.13;;;4.94;95.87
28079;BME280;15388;42.238;24.684;2022-10-19T01:04:27;100031.97;;;4.89;97.06
28079;BME280;15388;42.238;24.684;2022-10-19T01:06:53;100033.09;;;4.85;96.91
28079;BME280;15388;42.238;24.684;2022-10-19T01:09:19;100038.66;;;4.80;98.17
28079;BME280;15388;42.238;24.684;2022-10-19T01:14:18;100020.00;;;4.67;99.31
28079;BME280;15388;42.238;24.684;2022-10-19T01:27:20;100031.41;;;4.19;100.00
28079;BME280;15388;42.238;24.684;2022-10-19T01:32:23;100030.00;;;3.96;100.00
28079;BME280;15388;42.238;24.684;2022-10-19T01:37:36;100019.88;;;3.72;100.00
28079;BME280;15388;42.238;24.684;2022-10-19T01:42:50;100014.09;;;3.81;100.00
28079;BME280;15388;42.238;24.684;2022-10-19T01:45:26;100013.81;;;3.70;100.00
28079;BME280;15388;42.238;24.684;2022-10-19T01:47:54;100011.03;;;3.73;100.00
28079;BME280;15388;42.238;24.684;2022-10-19T01:50:38;100011.19;;;3.70;100.00
28079;BME280;15388;42.238;24.684;2022-10-19T01:53:05;100012.88;;;3.71;100.00
28079;BME280;15388;42.238;24.684;2022-10-19T01:55:31;100002.84;;;3.62;100.00
28079;BME280;15388;42.238;24.684;2022-10-19T01:57:58;100000.47;;;3.57;100.00
28079;BME280;15388;42.238;24.684;2022-10-19T02:00:25;99996.81;;;3.60;100.00
28079;BME280;15388;42.238;24.684;2022-10-19T02:02:52;100002.16;;;3.58;100.00
28079;BME280;15388;42.238;24.684;2022-10-19T02:05:19;99999.97;;;3.66;100.00
28079;BME280;15388;42.238;24.684;2022-10-19T02:07:46;99986.72;;;3.68;100.00
28079;BME280;15388;42.238;24.684;2022-10-19T02:10:13;99981.28;;;3.71;100.00
28079;BME280;15388;42.238;24.684;2022-10-19T02:12:38;99984.22;;;3.82;100.00
28079;BME280;15388;42.238;24.684;2022-10-19T02:15:08;99979.88;;;3.81;100.00
28079;BME280;15388;42.238;24.684;2022-10-19T02:17:35;99982.19;;;3.88;100.00
28079;BME280;15388;42.238;24.684;2022-10-19T02:20:03;99979.81;;;3.99;100.00
28079;BME280;15388;42.238;24.684;2022-10-19T02:22:28;99968.78;;;4.08;100.00
28079;BME280;15388;42.238;24.684;2022-10-19T02:24:54;99975.75;;;4.10;100.00
28079;BME280;15388;42.238;24.684;2022-10-19T02:27:19;99976.78;;;4.23;100.00
28079;BME280;15388;42.238;24.684;2022-10-19T02:29:44;99969.78;;;4.22;100.00
28079;BME280;15388;42.238;24.684;2022-10-19T02:32:10;99969.47;;;4.28;100.00
28079;BME280;15388;42.238;24.684;2022-10-19T02:34:36;99963.00;;;4.18;100.00
28079;BME280;15388;42.238;24.684;2022-10-19T02:37:03;99969.53;;;4.11;100.00
28079;BME280;15388;42.238;24.684;2022-10-19T02:39:28;99963.94;;;4.01;100.00
28079;BME280;15388;42.238;24.684;2022-10-19T02:41:59;99956.09;;;3.99;100.00
28079;BME280;15388;42.238;24.684;2022-10-19T02:44:28;99964.84;;;3.84;100.00
28079;BME280;15388;42.238;24.684;2022-10-19T02:46:56;99965.19;;;3.77;100.00
28079;BME280;15388;42.238;24.684;2022-10-19T02:49:24;99956.53;;;3.75;100.00
28079;BME280;15388;42.238;24.684;2022-10-19T02:51:58;99965.50;;;3.71;100.00
28079;BME280;15388;42.238;24.684;2022-10-19T02:54:24;99960.72;;;3.62;100.00
28079;BME280;15388;42.238;24.684;2022-10-19T02:56:50;99953.44;;;3.67;100.00
28079;BME280;15388;42.238;24.684;2022-10-19T02:59:15;99952.41;;;3.69;100.00
28079;BME280;15388;42.238;24.684;2022-10-19T03:01:41;99944.09;;;3.77;100.00
28079;BME280;15388;42.238;24.684;2022-10-19T03:04:06;99945.38;;;3.70;100.00
28079;BME280;15388;42.238;24.684;2022-10-19T03:06:31;99934.06;;;3.68;100.00
28079;BME280;15388;42.238;24.684;2022-10-19T03:08:56;99943.22;;;3.61;100.00
28079;BME280;15388;42.238;24.684;2022-10-19T03:11:22;99937.78;;;3.64;100.00
28079;BME280;15388;42.238;24.684;2022-10-19T03:13:47;99942.75;;;3.70;100.00
28079;BME280;15388;42.238;24.684;2022-10-19T03:16:12;99935.00;;;3.67;100.00
28079;BME280;15388;42.238;24.684;2022-10-19T03:18:38;99924.31;;;3.70;100.00
28079;BME280;15388;42.238;24.684;2022-10-19T03:21:05;99933.56;;;3.61;100.00
28079;BME280;15388;42.238;24.684;2022-10-19T03:23:30;99934.06;;;3.52;100.00
28079;BME280;15388;42.238;24.684;2022-10-19T03:25:56;99939.00;;;3.40;100.00
28079;BME280;15388;42.238;24.684;2022-10-19T03:28:21;99935.28;;;3.28;100.00
28079;BME280;15388;42.238;24.684;2022-10-19T03:30:46;99938.38;;;3.19;100.00
28079;BME280;15388;42.238;24.684;2022-10-19T03:33:11;99932.97;;;3.04;100.00
28079;BME280;15388;42.238;24.684;2022-10-19T03:35:37;99925.94;;;3.05;100.00
28079;BME280;15388;42.238;24.684;2022-10-19T03:38:02;99929.47;;;3.04;100.00
28079;BME280;15388;42.238;24.684;2022-10-19T03:40:27;99929.00;;;3.13;100.00
28079;BME280;15388;42.238;24.684;2022-10-19T03:42:53;99915.00;;;2.95;100.00
28079;BME280;15388;42.238;24.684;2022-10-19T03:45:18;99923.53;;;3.00;100.00
28079;BME280;15388;42.238;24.684;2022-10-19T03:47:47;99924.78;;;3.11;100.00
28079;BME280;15388;42.238;24.684;2022-10-19T03:50:13;99920.69;;;3.05;100.00
28079;BME280;15388;42.238;24.684;2022-10-19T03:52:40;99916.63;;;3.15;100.00
28079;BME280;15388;42.238;24.684;2022-10-19T03:55:06;99915.41;;;3.23;100.00
28079;BME280;15388;42.238;24.684;2022-10-19T03:57:32;99914.81;;;3.34;100.00
28079;BME280;15388;42.238;24.684;2022-10-19T03:59:57;99915.84;;;3.31;100.00
28079;BME280;15388;42.238;24.684;2022-10-19T04:02:22;99912.78;;;3.39;100.00
28079;BME280;15388;42.238;24.684;2022-10-19T04:04:47;99916.13;;;3.42;100.00
28079;BME280;15388;42.238;24.684;2022-10-19T04:07:12;99909.75;;;3.47;100.00
28079;BME280;15388;42.238;24.684;2022-10-19T04:09:38;99904.84;;;3.56;100.00
28079;BME280;15388;42.238;24.684;2022-10-19T04:12:03;99906.03;;;3.67;100.00
28079;BME280;15388;42.238;24.684;2022-10-19T04:14:28;99900.28;;;3.76;100.00
28079;BME280;15388;42.238;24.684;2022-10-19T04:16:54;99895.03;;;3.76;100.00
28079;BME280;15388;42.238;24.684;2022-10-19T04:19:19;99900.28;;;3.76;100.00
28079;BME280;15388;42.238;24.684;2022-10-19T04:21:46;99891.28;;;3.80;100.00
28079;BME280;15388;42.238;24.684;2022-10-19T04:24:13;99888.81;;;3.77;100.00
28079;BME280;15388;42.238;24.684;2022-10-19T04:26:42;99895.78;;;3.78;100.00
28079;BME280;15388;42.238;24.684;2022-10-19T04:29:08;99895.84;;;3.61;100.00
28079;BME280;15388;42.238;24.684;2022-10-19T04:31:34;99889.03;;;3.56;100.00
28079;BME280;15388;42.238;24.684;2022-10-19T04:33:59;99886.94;;;3.63;100.00
28079;BME280;15388;42.238;24.684;2022-10-19T04:36:24;99882.88;;;3.58;100.00
28079;BME280;15388;42.238;24.684;2022-10-19T04:38:49;99883.47;;;3.63;100.00
28079;BME280;15388;42.238;24.684;2022-10-19T04:41:16;99882.88;;;3.58;100.00
28079;BME280;15388;42.238;24.684;2022-10-19T04:43:42;99873.94;;;3.60;100.00
28079;BME280;15388;42.238;24.684;2022-10-19T04:46:10;99880.47;;;3.53;100.00
28079;BME280;15388;42.238;24.684;2022-10-19T04:48:37;99878.69;;;3.53;100.00
28079;BME280;15388;42.238;24.684;2022-10-19T04:51:03;99891.25;;;3.48;100.00
28079;BME280;15388;42.238;24.684;2022-10-19T04:53:28;99886.47;;;3.39;100.00
28079;BME280;15388;42.238;24.684;2022-10-19T04:55:53;99882.78;;;3.43;100.00
28079;BME280;15388;42.238;24.684;2022-10-19T04:58:19;99889.81;;;3.42;100.00
28079;BME280;15388;42.238;24.684;2022-10-19T05:00:44;99884.63;;;3.41;100.00
28079;BME280;15388;42.238;24.684;2022-10-19T05:03:09;99888.66;;;3.30;100.00
28079;BME280;15388;42.238;24.684;2022-10-19T05:05:35;99882.19;;;3.20;100.00
28079;BME280;15388;42.238;24.684;2022-10-19T05:08:00;99882.97;;;3.22;100.00
28079;BME280;15388;42.238;24.684;2022-10-19T05:10:25;99877.81;;;3.37;100.00
28079;BME280;15388;42.238;24.684;2022-10-19T05:12:51;99886.00;;;3.48;100.00
28079;BME280;15388;42.238;24.684;2022-10-19T05:15:16;99874.78;;;3.61;100.00
28079;BME280;15388;42.238;24.684;2022-10-19T05:17:41;99879.66;;;3.68;100.00
28079;BME280;15388;42.238;24.684;2022-10-19T05:20:07;99875.66;;;3.77;100.00
28079;BME280;15388;42.238;24.684;2022-10-19T05:22:32;99874.88;;;3.91;100.00
28079;BME280;15388;42.238;24.684;2022-10-19T05:24:57;99875.97;;;4.03;100.00
28079;BME280;15388;42.238;24.684;2022-10-19T05:27:23;99882.69;;;3.93;100.00
28079;BME280;15388;42.238;24.684;2022-10-19T05:29:48;99883.31;;;3.98;100.00
28079;BME280;15388;42.238;24.684;2022-10-19T05:32:13;99887.47;;;4.02;100.00
28079;BME280;15388;42.238;24.684;2022-10-19T05:34:39;99875.31;;;4.00;100.00
28079;BME280;15388;42.238;24.684;2022-10-19T05:37:04;99881.00;;;4.08;100.00
28079;BME280;15388;42.238;24.684;2022-10-19T05:39:29;99880.56;;;4.16;100.00
28079;BME280;15388;42.238;24.684;2022-10-19T05:41:54;99884.31;;;4.12;100.00
28079;BME280;15388;42.238;24.684;2022-10-19T05:44:20;99881.94;;;4.23;100.00
28079;BME280;15388;42.238;24.684;2022-10-19T05:46:46;99875.78;;;4.39;100.00
28079;BME280;15388;42.238;24.684;2022-10-19T05:49:13;99877.31;;;4.57;100.00
28079;BME280;15388;42.238;24.684;2022-10-19T05:51:38;99877.19;;;4.75;100.00
28079;BME280;15388;42.238;24.684;2022-10-19T05:54:04;99885.34;;;5.01;100.00
28079;BME280;15388;42.238;24.684;2022-10-19T05:56:29;99885.34;;;5.16;100.00
28079;BME280;15388;42.238;24.684;2022-10-19T05:58:56;99882.72;;;5.30;100.00
28079;BME280;15388;42.238;24.684;2022-10-19T06:01:21;99877.06;;;5.37;100.00
28079;BME280;15388;42.238;24.684;2022-10-19T06:03:49;99875.81;;;5.57;100.00
28079;BME280;15388;42.238;24.684;2022-10-19T06:06:15;99875.91;;;5.70;100.00
28079;BME280;15388;42.238;24.684;2022-10-19T06:08:40;99882.09;;;5.83;100.00
28079;BME280;15388;42.238;24.684;2022-10-19T06:11:07;99879.06;;;5.90;100.00
28079;BME280;15388;42.238;24.684;2022-10-19T06:13:32;99882.06;;;5.98;100.00
28079;BME280;15388;42.238;24.684;2022-10-19T06:15:58;99875.91;;;6.12;100.00
28079;BME280;15388;42.238;24.684;2022-10-19T06:18:23;99880.13;;;6.29;100.00
28079;BME280;15388;42.238;24.684;2022-10-19T06:20:50;99878.69;;;6.51;100.00
28079;BME280;15388;42.238;24.684;2022-10-19T06:23:15;99879.97;;;6.58;100.00
28079;BME280;15388;42.238;24.684;2022-10-19T06:25:40;99869.09;;;6.76;100.00
28079;BME280;15388;42.238;24.684;2022-10-19T06:28:06;99866.34;;;6.91;100.00
28079;BME280;15388;42.238;24.684;2022-10-19T06:30:31;99871.88;;;7.13;100.00
28079;BME280;15388;42.238;24.684;2022-10-19T06:32:57;99866.16;;;7.33;100.00
28079;BME280;15388;42.238;24.684;2022-10-19T06:35:22;99868.44;;;7.63;98.07
28079;BME280;15388;42.238;24.684;2022-10-19T06:37:48;99870.84;;;7.80;97.20
28079;BME280;15388;42.238;24.684;2022-10-19T06:40:13;99861.56;;;7.98;95.43
28079;BME280;15388;42.238;24.684;2022-10-19T06:42:38;99856.97;;;8.25;92.63
28079;BME280;15388;42.238;24.684;2022-10-19T06:45:07;99859.09;;;8.44;90.22
28079;BME280;15388;42.238;24.684;2022-10-19T06:47:33;99861.13;;;8.65;89.50
28079;BME280;15388;42.238;24.684;2022-10-19T06:49:59;99858.41;;;9.01;85.98
28079;BME280;15388;42.238;24.684;2022-10-19T06:52:24;99867.50;;;9.21;85.70
28079;BME280;15388;42.238;24.684;2022-10-19T06:54:49;99855.31;;;9.41;84.46
28079;BME280;15388;42.238;24.684;2022-10-19T06:57:14;99857.97;;;9.53;83.56
28079;BME280;15388;42.238;24.684;2022-10-19T06:59:40;99855.16;;;9.66;83.61
28079;BME280;15388;42.238;24.684;2022-10-19T07:02:05;99848.34;;;9.85;82.61
28079;BME280;15388;42.238;24.684;2022-10-19T07:04:30;99850.63;;;10.01;83.25
28079;BME280;15388;42.238;24.684;2022-10-19T07:06:55;99847.53;;;10.17;82.47
28079;BME280;15388;42.238;24.684;2022-10-19T07:09:21;99847.13;;;10.33;80.21
28079;BME280;15388;42.238;24.684;2022-10-19T07:11:46;99845.16;;;10.47;79.43
28079;BME280;15388;42.238;24.684;2022-10-19T07:14:12;99840.75;;;10.57;79.91
28079;BME280;15388;42.238;24.684;2022-10-19T07:16:37;99845.47;;;10.75;80.04
28079;BME280;15388;42.238;24.684;2022-10-19T07:19:03;99840.28;;;10.94;77.96
28079;BME280;15388;42.238;24.684;2022-10-19T07:21:28;99845.38;;;11.07;77.54
28079;BME280;15388;42.238;24.684;2022-10-19T07:23:53;99837.97;;;11.11;76.84
28079;BME280;15388;42.238;24.684;2022-10-19T07:26:25;99834.00;;;11.27;75.85
28079;BME280;15388;42.238;24.684;2022-10-19T07:28:52;99829.81;;;11.34;76.29
28079;BME280;15388;42.238;24.684;2022-10-19T07:31:20;99834.59;;;11.40;74.01
28079;BME280;15388;42.238;24.684;2022-10-19T07:33:46;99830.44;;;11.48;73.68
28079;BME280;15388;42.238;24.684;2022-10-19T07:36:11;99826.66;;;11.60;72.79
28079;BME280;15388;42.238;24.684;2022-10-19T07:38:38;99818.38;;;11.53;73.58
28079;BME280;15388;42.238;24.684;2022-10-19T07:41:07;99813.88;;;11.64;73.22
28079;BME280;15388;42.238;24.684;2022-10-19T07:43:33;99804.06;;;11.64;72.58
28079;BME280;15388;42.238;24.684;2022-10-19T07:46:03;99807.75;;;11.83;71.46
28079;BME280;15388;42.238;24.684;2022-10-19T07:48:29;99805.66;;;11.96;72.19
28079;BME280;15388;42.238;24.684;2022-10-19T07:50:54;99808.66;;;12.13;70.53
28079;BME280;15388;42.238;24.684;2022-10-19T07:53:20;99805.84;;;12.25;69.47
28079;BME280;15388;42.238;24.684;2022-10-19T07:55:45;99802.78;;;12.29;68.99
28079;BME280;15388;42.238;24.684;2022-10-19T07:58:10;99796.31;;;12.32;68.71
28079;BME280;15388;42.238;24.684;2022-10-19T08:00:36;99798.81;;;12.43;68.77
28079;BME280;15388;42.238;24.684;2022-10-19T08:03:01;99798.94;;;12.52;70.77
28079;BME280;15388;42.238;24.684;2022-10-19T08:05:26;99796.25;;;12.71;69.88
28079;BME280;15388;42.238;24.684;2022-10-19T08:07:51;99794.50;;;12.90;69.40
28079;BME280;15388;42.238;24.684;2022-10-19T08:10:17;99787.38;;;13.09;70.61
28079;BME280;15388;42.238;24.684;2022-10-19T08:12:42;99789.00;;;13.30;68.81
28079;BME280;15388;42.238;24.684;2022-10-19T08:15:07;99775.72;;;13.38;67.05
28079;BME280;15388;42.238;24.684;2022-10-19T08:17:36;99777.81;;;13.44;65.66
28079;BME280;15388;42.238;24.684;2022-10-19T08:20:02;99775.94;;;13.55;66.38
28079;BME280;15388;42.238;24.684;2022-10-19T08:22:28;99765.81;;;13.48;65.66
28079;BME280;15388;42.238;24.684;2022-10-19T08:24:53;99764.88;;;13.68;66.31
28079;BME280;15388;42.238;24.684;2022-10-19T08:27:18;99762.44;;;13.93;64.00
28079;BME280;15388;42.238;24.684;2022-10-19T08:29:44;99766.72;;;14.22;60.66
28079;BME280;15388;42.238;24.684;2022-10-19T08:32:09;99763.09;;;14.31;60.02
28079;BME280;15388;42.238;24.684;2022-10-19T08:34:34;99771.97;;;14.32;59.79
28079;BME280;15388;42.238;24.684;2022-10-19T08:37:00;99761.16;;;14.42;60.37
28079;BME280;15388;42.238;24.684;2022-10-19T08:39:26;99752.97;;;14.43;60.07
28079;BME280;15388;42.238;24.684;2022-10-19T08:42:04;99751.72;;;14.82;60.01
28079;BME280;15388;42.238;24.684;2022-10-19T08:49:39;99728.72;;;15.58;55.71
28079;BME280;15388;42.238;24.684;2022-10-19T08:52:06;99744.81;;;15.74;55.23
28079;BME280;15388;42.238;24.684;2022-10-19T08:54:40;99734.63;;;15.86;54.03
28079;BME280;15388;42.238;24.684;2022-10-19T08:59:39;99729.75;;;15.82;53.05
28079;BME280;15388;42.238;24.684;2022-10-19T09:02:15;99732.28;;;16.16;52.48
28079;BME280;15388;42.238;24.684;2022-10-19T09:04:47;99720.91;;;16.06;51.53
28079;BME280;15388;42.238;24.684;2022-10-19T09:09:43;99721.34;;;16.60;51.90
28079;BME280;15388;42.238;24.684;2022-10-19T09:12:12;99721.69;;;16.97;48.91
28079;BME280;15388;42.238;24.684;2022-10-19T09:15:14;99717.44;;;17.19;47.46
28079;BME280;15388;42.238;24.684;2022-10-19T09:17:32;99705.41;;;17.38;46.62
28079;BME280;15388;42.238;24.684;2022-10-19T09:20:00;99712.19;;;17.57;45.80
28079;BME280;15388;42.238;24.684;2022-10-19T09:22:33;99711.56;;;17.47;44.08
28079;BME280;15388;42.238;24.684;2022-10-19T09:25:03;99705.50;;;17.77;45.48
28079;BME280;15388;42.238;24.684;2022-10-19T09:27:36;99704.16;;;17.96;43.96
28079;BME280;15388;42.238;24.684;2022-10-19T09:30:04;99701.75;;;18.25;43.62
28079;BME280;15388;42.238;24.684;2022-10-19T09:32:31;99703.63;;;18.54;43.60
28079;BME280;15388;42.238;24.684;2022-10-19T09:34:57;99701.41;;;18.73;41.87
28079;BME280;15388;42.238;24.684;2022-10-19T09:37:25;99686.06;;;18.89;42.12
28079;BME280;15388;42.238;24.684;2022-10-19T09:39:50;99684.53;;;19.01;41.40
28079;BME280;15388;42.238;24.684;2022-10-19T09:44:48;99678.59;;;19.21;41.59
28079;BME280;15388;42.238;24.684;2022-10-19T09:47:27;99681.34;;;18.61;40.70
28079;BME280;15388;42.238;24.684;2022-10-19T09:52:55;99673.25;;;18.91;42.68
28079;BME280;15388;42.238;24.684;2022-10-19T09:55:24;99668.00;;;19.41;40.93
28079;BME280;15388;42.238;24.684;2022-10-19T09:57:56;99664.06;;;19.22;39.33
28079;BME280;15388;42.238;24.684;2022-10-19T10:00:24;99664.38;;;19.49;40.49
28079;BME280;15388;42.238;24.684;2022-10-19T10:02:50;99651.13;;;19.54;39.05
28079;BME280;15388;42.238;24.684;2022-10-19T10:05:15;99653.81;;;19.76;38.39
28079;BME280;15388;42.238;24.684;2022-10-19T10:07:41;99649.38;;;20.19;38.29
28079;BME280;15388;42.238;24.684;2022-10-19T10:10:10;99647.22;;;20.43;37.94
28079;BME280;15388;42.238;24.684;2022-10-19T10:12:43;99637.63;;;20.33;37.55
28079;BME280;15388;42.238;24.684;2022-10-19T10:15:12;99637.75;;;20.60;36.60
28079;BME280;15388;42.238;24.684;2022-10-19T10:17:40;99633.00;;;20.62;37.26
28079;BME280;15388;42.238;24.684;2022-10-19T10:20:21;99621.19;;;20.70;36.11
28079;BME280;15388;42.238;24.684;2022-10-19T10:22:55;99616.75;;;20.98;36.04
28079;BME280;15388;42.238;24.684;2022-10-19T10:25:23;99615.00;;;20.83;36.08
28079;BME280;15388;42.238;24.684;2022-10-19T10:30:33;99611.25;;;20.84;36.53
28079;BME280;15388;42.238;24.684;2022-10-19T10:32:59;99613.69;;;20.66;37.21
28079;BME280;15388;42.238;24.684;2022-10-19T10:35:34;99603.69;;;20.66;36.94
28079;BME280;15388;42.238;24.684;2022-10-19T10:38:07;99599.25;;;20.94;37.31
28079;BME280;15388;42.238;24.684;2022-10-19T10:40:33;99591.38;;;21.12;36.11
28079;BME280;15388;42.238;24.684;2022-10-19T10:43:03;99590.13;;;21.22;36.15
28079;BME280;15388;42.238;24.684;2022-10-19T10:48:28;99584.75;;;21.56;35.26
28079;BME280;15388;42.238;24.684;2022-10-19T10:50:55;99582.25;;;21.68;34.79
28079;BME280;15388;42.238;24.684;2022-10-19T10:55:55;99575.56;;;22.04;34.00
28079;BME280;15388;42.238;24.684;2022-10-19T10:58:26;99575.75;;;22.09;33.82
28079;BME280;15388;42.238;24.684;2022-10-19T11:00:56;99567.47;;;21.97;34.02
28079;BME280;15388;42.238;24.684;2022-10-19T11:03:26;99570.41;;;21.96;35.64
28079;BME280;15388;42.238;24.684;2022-10-19T11:05:59;99554.31;;;22.14;34.22
28079;BME280;15388;42.238;24.684;2022-10-19T11:11:10;99552.06;;;21.71;33.71
28079;BME280;15388;42.238;24.684;2022-10-19T11:16:16;99543.13;;;21.84;33.03
28079;BME280;15388;42.238;24.684;2022-10-19T11:18:49;99548.03;;;22.21;33.65
28079;BME280;15388;42.238;24.684;2022-10-19T11:21:29;99553.03;;;22.17;33.92
28079;BME280;15388;42.238;24.684;2022-10-19T11:26:54;99534.78;;;22.45;33.45
28079;BME280;15388;42.238;24.684;2022-10-19T11:29:32;99530.16;;;22.98;32.46
28079;BME280;15388;42.238;24.684;2022-10-19T11:32:01;99531.38;;;23.02;31.75
28079;BME280;15388;42.238;24.684;2022-10-19T11:42:23;99503.63;;;23.95;30.36
28079;BME280;15388;42.238;24.684;2022-10-19T11:44:58;99503.09;;;24.05;30.00
28079;BME280;15388;42.238;24.684;2022-10-19T11:50:29;99508.03;;;23.01;30.44
28079;BME280;15388;42.238;24.684;2022-10-19T12:00:18;99488.66;;;24.73;28.08
28079;BME280;15388;42.238;24.684;2022-10-19T12:05:30;99492.09;;;23.81;28.85
28079;BME280;15388;42.238;24.684;2022-10-19T12:12:55;99476.81;;;23.80;29.75
28079;BME280;15388;42.238;24.684;2022-10-19T12:15:27;99477.94;;;24.16;28.72
28079;BME280;15388;42.238;24.684;2022-10-19T12:17:54;99470.06;;;23.89;28.92
28079;BME280;15388;42.238;24.684;2022-10-19T12:20:28;99467.81;;;24.36;28.87
28079;BME280;15388;42.238;24.684;2022-10-19T12:22:56;99461.91;;;24.70;29.31
28079;BME280;15388;42.238;24.684;2022-10-19T12:25:22;99448.97;;;24.96;28.93
28079;BME280;15388;42.238;24.684;2022-10-19T12:27:47;99445.50;;;24.76;28.21
28079;BME280;15388;42.238;24.684;2022-10-19T12:30:15;99450.69;;;24.66;28.45
28079;BME280;15388;42.238;24.684;2022-10-19T12:32:52;99442.94;;;24.51;28.62
28079;BME280;15388;42.238;24.684;2022-10-19T12:37:49;99436.72;;;25.05;27.30
28079;BME280;15388;42.238;24.684;2022-10-19T12:42:48;99428.66;;;25.34;28.04
28079;BME280;15388;42.238;24.684;2022-10-19T12:53:20;99399.38;;;26.82;26.95
28079;BME280;15388;42.238;24.684;2022-10-19T12:55:46;99388.78;;;27.03;26.78
28079;BME280;15388;42.238;24.684;2022-10-19T12:58:22;99388.78;;;27.42;25.89
28079;BME280;15388;42.238;24.684;2022-10-19T13:00:58;99387.88;;;27.54;25.55
28079;BME280;15388;42.238;24.684;2022-10-19T13:03:26;99383.75;;;27.74;24.95
28079;BME280;15388;42.238;24.684;2022-10-19T13:05:54;99389.47;;;27.94;24.59
28079;BME280;15388;42.238;24.684;2022-10-19T13:08:25;99399.44;;;27.61;24.89
28079;BME280;15388;42.238;24.684;2022-10-19T13:11:02;99391.25;;;27.61;24.69
28079;BME280;15388;42.238;24.684;2022-10-19T13:34:50;99408.19;;;26.55;25.19
28079;BME280;15388;42.238;24.684;2022-10-19T13:37:15;99405.69;;;26.36;24.96
28079;BME280;15388;42.238;24.684;2022-10-19T13:39:42;99402.28;;;26.29;25.30
28079;BME280;15388;42.238;24.684;2022-10-19T13:42:29;99397.28;;;26.26;25.73
28079;BME280;15388;42.238;24.684;2022-10-19T13:44:53;99393.50;;;26.56;25.69
28079;BME280;15388;42.238;24.684;2022-10-19T13:47:34;99385.06;;;26.92;25.32
28079;BME280;15388;42.238;24.684;2022-10-19T14:10:58;99350.81;;;26.84;24.66
28079;BME280;15388;42.238;24.684;2022-10-19T14:13:24;99352.38;;;27.14;25.40
28079;BME280;15388;42.238;24.684;2022-10-19T14:15:51;99348.41;;;27.44;25.20
28079;BME280;15388;42.238;24.684;2022-10-19T14:18:29;99349.50;;;27.66;24.69
28079;BME280;15388;42.238;24.684;2022-10-19T14:20:56;99355.22;;;27.87;24.62
28079;BME280;15388;42.238;24.684;2022-10-19T14:23:23;99358.78;;;27.87;24.63
28079;BME280;15388;42.238;24.684;2022-10-19T14:28:20;99354.44;;;27.91;23.30
28079;BME280;15388;42.238;24.684;2022-10-19T14:31:00;99362.19;;;28.00;24.20
28079;BME280;15388;42.238;24.684;2022-10-19T14:33:27;99352.22;;;27.88;23.72
28079;BME280;15388;42.238;24.684;2022-10-19T14:35:53;99355.00;;;27.93;24.68
28079;BME280;15388;42.238;24.684;2022-10-19T14:38:20;99348.00;;;28.03;23.85
28079;BME280;15388;42.238;24.684;2022-10-19T14:40:48;99344.59;;;27.90;24.82
28079;BME280;15388;42.238;24.684;2022-10-19T14:43:23;99351.19;;;27.94;24.29
28079;BME280;15388;42.238;24.684;2022-10-19T14:48:39;99344.59;;;27.90;24.65
28079;BME280;15388;42.238;24.684;2022-10-19T14:53:51;99348.69;;;27.65;24.99
28079;BME280;15388;42.238;24.684;2022-10-19T14:57:01;99345.16;;;27.47;25.63
28079;BME280;15388;42.238;24.684;2022-10-19T14:59:14;99344.16;;;27.31;25.69
28079;BME280;15388;42.238;24.684;2022-10-19T15:01:49;99351.59;;;27.19;25.90
28079;BME280;15388;42.238;24.684;2022-10-19T15:04:17;99352.25;;;27.04;26.61
28079;BME280;15388;42.238;24.684;2022-10-19T15:06:42;99350.50;;;26.63;27.27
28079;BME280;15388;42.238;24.684;2022-10-19T15:09:12;99351.75;;;26.09;27.52
28079;BME280;15388;42.238;24.684;2022-10-19T15:11:43;99347.66;;;25.65;28.23
28079;BME280;15388;42.238;24.684;2022-10-19T15:14:18;99359.16;;;25.43;28.34
28079;BME280;15388;42.238;24.684;2022-10-19T15:16:53;99346.03;;;25.16;28.99